Valdemorillo, Spain
Current Conditions -  °F | °C
As of 2:30 PM on Friday 24 Oct 2014 (Local Time) from LEVS Reporting Station
Clear Clear  
Wind Chill: 26°   Ceiling: Unl
Heat Index: 26°   Visibility: 6mi
Dew Point:   Wind: 3mph
Humidity: 32%   Direction: 80°E
Pressure: 30.12"   Gusts: NA
Location:  40.5°N, 4.07°W
Report Text: LEVS 241230Z 08003KT 360V150 CAVOK 26/08 Q1020
Loading
Personal Weather Stations






























Interactive Weather Map
Tropical Storm Tracking
New forecast layout! Learn more

10-Day Weather Forecast

Advertisements
Track Severe Weather on mobile